Time;durP1;ratioP1;P1;durP2;ratioP2;P2;SDS_P1;SDS_P2;PMS_P1;PMS_P2;Temp;Humidity;BMP_temperature;BMP_pressure;BME280_temperature;BME280_humidity;BME280_pressure;Samples;Min_cycle;Max_cycle;Signal;HPM_P1;HPM_P2
2022/05/06 00:02:09;;;;;;;13.88;7.93;;;17.70;95.10;;;;;;5034425;28;20029;-72
2022/05/06 00:04:35;;;;;;;12.73;7.75;;;17.60;95.20;;;;;;5034107;28;20025;-71
2022/05/06 00:07:01;;;;;;;14.48;7.57;;;17.60;95.40;;;;;;5034185;28;20415;-71
2022/05/06 00:09:26;;;;;;;14.10;8.20;;;17.60;95.60;;;;;;5034170;28;20053;-75
2022/05/06 00:11:52;;;;;;;14.32;8.32;;;17.60;95.60;;;;;;5034178;28;20387;-71
2022/05/06 00:14:19;;;;;;;13.93;7.90;;;17.60;95.70;;;;;;5033948;28;20022;-72
2022/05/06 00:16:45;;;;;;;13.35;8.52;;;17.50;95.90;;;;;;5033795;28;20025;-71
2022/05/06 00:19:11;;;;;;;15.48;8.23;;;17.40;96.20;;;;;;5033998;28;20034;-73
2022/05/06 00:21:37;;;;;;;11.80;8.50;;;17.50;96.20;;;;;;5034137;28;20028;-71
2022/05/06 00:24:04;;;;;;;12.80;8.48;;;17.50;96.20;;;;;;5033774;28;20033;-72
2022/05/06 00:26:30;;;;;;;14.55;8.23;;;17.50;96.10;;;;;;5033336;28;20028;-72
2022/05/06 00:28:55;;;;;;;12.02;8.02;;;17.50;96.00;;;;;;5033753;28;20378;-71
2022/05/06 00:31:21;;;;;;;13.90;8.57;;;17.50;96.10;;;;;;5033727;28;20394;-71
2022/05/06 00:33:48;;;;;;;15.50;8.57;;;17.50;96.10;;;;;;5033651;28;20013;-73
2022/05/06 00:36:14;;;;;;;12.23;8.05;;;17.50;96.30;;;;;;5034353;28;20045;-71
2022/05/06 00:38:42;;;;;;;10.40;8.02;;;17.50;96.40;;;;;;5034917;28;20025;-72
2022/05/06 00:41:08;;;;;;;12.88;8.25;;;17.40;96.30;;;;;;5033441;28;20095;-72
2022/05/06 00:43:41;;;;;;;15.52;8.00;;;17.40;96.40;;;;;;5034966;28;20017;-71
2022/05/06 00:46:15;;;;;;;12.73;8.02;;;17.40;96.40;;;;;;5034710;28;20445;-71
2022/05/06 00:48:48;;;;;;;10.15;8.25;;;17.40;96.60;;;;;;5033822;28;20033;-71
2022/05/06 00:51:18;;;;;;;16.50;8.18;;;17.40;96.50;;;;;;5033691;28;20104;-71
2022/05/06 00:53:44;;;;;;;14.77;7.38;;;17.30;96.60;;;;;;5033464;28;20034;-70
2022/05/06 00:56:12;;;;;;;11.82;7.63;;;17.30;96.70;;;;;;5033417;28;20112;-71
2022/05/06 00:58:38;;;;;;;13.98;7.95;;;17.30;96.80;;;;;;5033785;28;20022;-73
2022/05/06 01:01:05;;;;;;;12.23;7.95;;;17.30;96.80;;;;;;5033196;28;20116;-72
2022/05/06 01:03:31;;;;;;;14.52;8.13;;;17.30;97.00;;;;;;5033463;28;20032;-72
2022/05/06 01:05:57;;;;;;;14.10;8.00;;;17.30;96.80;;;;;;5048211;28;20022;-71
2022/05/06 01:08:23;;;;;;;10.98;7.18;;;17.40;96.60;;;;;;5033654;28;20109;-74
2022/05/06 01:10:49;;;;;;;12.98;8.02;;;17.40;96.50;;;;;;5034079;28;20167;-72
2022/05/06 01:13:18;;;;;;;11.25;7.65;;;17.40;96.40;;;;;;5033476;28;20025;-71
2022/05/06 01:15:43;;;;;;;11.18;7.28;;;17.50;96.20;;;;;;5033112;28;20041;-71
2022/05/06 01:18:13;;;;;;;11.27;7.25;;;17.50;96.10;;;;;;5033119;28;20025;-72
2022/05/06 01:20:45;;;;;;;12.38;8.35;;;17.50;96.00;;;;;;5033308;28;20034;-74
2022/05/06 01:23:11;;;;;;;12.48;6.70;;;17.50;95.80;;;;;;5033328;28;20029;-77
2022/05/06 01:25:37;;;;;;;10.50;7.20;;;17.50;95.70;;;;;;5033107;28;20072;-77
2022/05/06 01:28:06;;;;;;;11.27;6.60;;;17.50;95.60;;;;;;5032951;28;20084;-70
2022/05/06 01:30:42;;;;;;;9.85;7.03;;;17.50;95.40;;;;;;5033583;28;20061;-72
2022/05/06 01:33:13;;;;;;;13.63;6.80;;;17.50;95.20;;;;;;5033168;28;20037;-75
2022/05/06 01:35:42;;;;;;;12.88;6.45;;;17.50;95.10;;;;;;5048330;28;20064;-73
2022/05/06 01:38:10;;;;;;;13.05;6.30;;;17.50;94.80;;;;;;5033998;28;20045;-71
2022/05/06 01:40:46;;;;;;;10.15;6.72;;;17.60;94.60;;;;;;5037009;28;20033;-71
2022/05/06 01:43:15;;;;;;;12.10;6.00;;;17.60;94.40;;;;;;5037282;28;20099;-71
2022/05/06 01:45:43;;;;;;;11.63;5.50;;;17.60;93.90;;;;;;5039344;28;20028;-73
2022/05/06 01:48:09;;;;;;;10.40;4.57;;;17.70;93.30;;;;;;5039127;28;20506;-71
2022/05/06 01:50:39;;;;;;;9.65;5.15;;;17.80;92.20;;;;;;5037441;28;20052;-73
2022/05/06 01:53:08;;;;;;;7.95;4.18;;;18.00;91.00;;;;;;5036930;28;20422;-71
2022/05/06 01:55:33;;;;;;;10.88;4.63;;;18.10;89.20;;;;;;5036626;28;20025;-71
2022/05/06 01:57:59;;;;;;;9.20;4.28;;;18.30;88.00;;;;;;5035333;28;20362;-71
2022/05/06 02:00:25;;;;;;;13.05;4.40;;;18.40;85.40;;;;;;5036729;28;20043;-73
2022/05/06 02:02:51;;;;;;;8.77;4.10;;;18.50;83.80;;;;;;5036679;28;20092;-69
2022/05/06 02:05:17;;;;;;;7.70;4.35;;;18.60;82.00;;;;;;5036796;28;20360;-71
2022/05/06 02:07:53;;;;;;;8.70;4.20;;;18.70;81.30;;;;;;5037111;28;20057;-71
2022/05/06 02:10:20;;;;;;;8.15;4.65;;;18.80;80.50;;;;;;5036896;28;20386;-73
2022/05/06 02:12:46;;;;;;;9.55;4.55;;;18.80;79.60;;;;;;5035397;28;20098;-71
2022/05/06 02:15:14;;;;;;;11.93;4.45;;;18.90;78.80;;;;;;5036203;28;20501;-72
2022/05/06 02:17:41;;;;;;;10.20;4.10;;;18.90;78.60;;;;;;5036391;28;20105;-72
2022/05/06 02:20:09;;;;;;;9.77;4.68;;;18.80;77.80;;;;;;5036085;28;20040;-73
2022/05/06 02:22:36;;;;;;;13.00;4.47;;;18.90;78.10;;;;;;5051967;28;20171;-71
2022/05/06 02:25:04;;;;;;;9.98;4.28;;;18.90;77.20;;;;;;5036120;28;20100;-71
2022/05/06 02:27:31;;;;;;;11.45;4.00;;;18.90;76.70;;;;;;5036088;28;20036;-73
2022/05/06 02:35:27;;;;;;;10.88;4.18;;;18.80;77.30;;;;;;5036215;28;20115;-71
2022/05/06 02:37:52;;;;;;;13.25;4.32;;;18.80;76.80;;;;;;5035918;28;20025;-70
2022/05/06 02:40:18;;;;;;;11.73;3.60;;;18.80;76.20;;;;;;5036057;28;20033;-72
2022/05/06 02:42:44;;;;;;;10.00;3.92;;;18.90;74.20;;;;;;5036650;28;20029;-72
2022/05/06 02:45:10;;;;;;;12.48;4.50;;;18.90;73.50;;;;;;5051621;28;20037;-72
2022/05/06 02:47:37;;;;;;;9.55;4.15;;;19.00;73.10;;;;;;5036142;28;20029;-70
2022/05/06 02:50:03;;;;;;;11.18;4.35;;;19.00;73.90;;;;;;5034940;28;20040;-70
2022/05/06 02:52:29;;;;;;;12.60;4.22;;;19.00;73.30;;;;;;5036040;28;20387;-69
2022/05/06 02:54:54;;;;;;;9.82;4.18;;;19.00;72.70;;;;;;5035792;28;20034;-74
2022/05/06 02:57:20;;;;;;;14.13;4.20;;;19.00;72.30;;;;;;5035600;28;20021;-72
2022/05/06 02:59:46;;;;;;;12.82;3.97;;;19.00;72.30;;;;;;5035256;28;20117;-71
2022/05/06 03:02:11;;;;;;;12.75;4.57;;;19.00;72.00;;;;;;5035473;28;20087;-70
2022/05/06 03:04:38;;;;;;;10.77;3.80;;;19.10;70.90;;;;;;5035656;28;20103;-70
2022/05/06 03:07:06;;;;;;;15.05;4.18;;;19.10;71.30;;;;;;5035421;28;20033;-70
2022/05/06 03:09:33;;;;;;;10.43;3.60;;;19.10;70.80;;;;;;5035455;28;20049;-71
2022/05/06 03:11:59;;;;;;;17.50;4.18;;;19.10;70.20;;;;;;5035309;28;20550;-71
2022/05/06 03:14:25;;;;;;;12.95;3.85;;;19.10;70.30;;;;;;5035394;28;20100;-71
2022/05/06 03:16:51;;;;;;;10.55;3.95;;;19.10;70.10;;;;;;5035807;28;20041;-70
2022/05/06 03:19:17;;;;;;;18.70;4.13;;;19.10;69.90;;;;;;5035126;28;20037;-71
2022/05/06 03:21:52;;;;;;;17.50;3.80;;;19.10;69.80;;;;;;5035588;28;20466;-71
2022/05/06 03:24:18;;;;;;;11.75;3.47;;;19.20;68.50;;;;;;5035112;28;20064;-69
2022/05/06 03:26:45;;;;;;;9.40;3.50;;;19.20;68.00;;;;;;5034993;28;20057;-72
2022/05/06 03:29:11;;;;;;;17.77;4.30;;;19.30;68.20;;;;;;5033750;28;20028;-72
2022/05/06 03:31:37;;;;;;;13.43;4.20;;;19.30;67.50;;;;;;5035327;28;20025;-71
2022/05/06 03:34:04;;;;;;;16.60;5.00;;;19.30;66.70;;;;;;5035329;28;20079;-71
2022/05/06 03:36:30;;;;;;;17.45;3.42;;;19.40;66.30;;;;;;5034605;28;20057;-70
2022/05/06 03:38:55;;;;;;;20.95;4.60;;;19.40;66.10;;;;;;5034728;28;20017;-71
2022/05/06 03:41:21;;;;;;;22.75;5.00;;;19.40;65.70;;;;;;5034659;28;20048;-71
2022/05/06 03:43:47;;;;;;;13.30;4.00;;;19.40;65.60;;;;;;5034560;28;20071;-71
2022/05/06 03:46:13;;;;;;;16.23;4.20;;;19.50;65.40;;;;;;5034807;28;20029;-71
2022/05/06 03:48:39;;;;;;;14.88;3.90;;;19.50;64.70;;;;;;5034630;28;20075;-71
2022/05/06 03:51:21;;;;;;;18.35;3.55;;;19.50;64.90;;;;;;5034583;28;20029;-72
2022/05/06 03:53:51;;;;;;;16.58;4.07;;;19.50;64.90;;;;;;5034745;28;20026;-71
2022/05/06 03:56:18;;;;;;;20.48;4.15;;;19.60;64.80;;;;;;5034555;28;20029;-71
2022/05/06 03:58:44;;;;;;;20.08;4.13;;;19.60;64.70;;;;;;5034318;28;20378;-72
2022/05/06 04:01:11;;;;;;;15.02;4.00;;;19.70;64.00;;;;;;5032501;28;20486;-71
2022/05/06 04:03:38;;;;;;;14.05;3.40;;;19.80;62.60;;;;;;5034045;28;20038;-72
2022/05/06 04:06:04;;;;;;;18.30;4.13;;;19.90;62.30;;;;;;5033992;28;20026;-72
2022/05/06 04:08:31;;;;;;;17.85;4.88;;;19.90;62.60;;;;;;5034182;28;20455;-71
2022/05/06 04:10:57;;;;;;;13.82;3.50;;;19.90;62.20;;;;;;5034349;28;20104;-71
2022/05/06 04:13:23;;;;;;;16.77;4.25;;;20.00;62.00;;;;;;5034261;28;20487;-71
2022/05/06 04:15:50;;;;;;;13.32;4.03;;;20.00;61.70;;;;;;5034393;28;20082;-72
2022/05/06 04:18:17;;;;;;;12.55;3.88;;;20.10;61.60;;;;;;5034803;28;20425;-71
2022/05/06 04:23:30;;;;;;;13.85;3.92;;;20.10;61.30;;;;;;5034194;28;20064;-70
2022/05/06 04:26:03;;;;;;;16.73;4.70;;;20.10;60.90;;;;;;5033746;28;20467;-71
2022/05/06 04:28:30;;;;;;;15.80;4.03;;;20.10;59.70;;;;;;5033744;28;20048;-70
2022/05/06 04:30:56;;;;;;;14.57;4.20;;;20.10;60.10;;;;;;5032564;28;20264;-71
2022/05/06 04:33:25;;;;;;;17.35;3.80;;;20.10;60.10;;;;;;5034001;28;20025;-72
2022/05/06 04:35:51;;;;;;;15.68;3.83;;;20.10;60.20;;;;;;5033855;28;20121;-70
2022/05/06 04:38:17;;;;;;;13.10;4.10;;;20.10;60.30;;;;;;5033650;28;20140;-71
2022/05/06 04:40:43;;;;;;;16.33;4.30;;;20.10;60.40;;;;;;5033728;28;20091;-71
2022/05/06 04:43:10;;;;;;;17.52;3.78;;;20.10;59.70;;;;;;5033386;28;20021;-71
2022/05/06 04:45:43;;;;;;;14.70;3.78;;;20.10;59.80;;;;;;5033277;28;20045;-70
2022/05/06 04:48:11;;;;;;;13.13;3.78;;;20.10;60.00;;;;;;5033638;28;20438;-70
2022/05/06 04:50:40;;;;;;;11.82;3.60;;;20.10;60.60;;;;;;5033550;28;20030;-72
2022/05/06 04:53:07;;;;;;;16.65;4.32;;;20.10;58.90;;;;;;5033924;28;20028;-72
2022/05/06 04:55:42;;;;;;;15.00;3.70;;;20.10;60.60;;;;;;5035028;28;20025;-71
2022/05/06 04:58:09;;;;;;;19.70;3.95;;;20.00;61.10;;;;;;5033524;28;20033;-71
2022/05/06 05:00:35;;;;;;;21.95;4.13;;;20.00;60.70;;;;;;5033345;28;20151;-71
2022/05/06 05:03:02;;;;;;;15.90;3.72;;;20.00;60.30;;;;;;5033372;28;20477;-71
2022/05/06 05:05:28;;;;;;;15.65;3.90;;;20.00;60.00;;;;;;5033347;28;20071;-71
2022/05/06 05:07:54;;;;;;;22.40;3.97;;;20.00;60.30;;;;;;5033367;28;20104;-70
2022/05/06 05:10:21;;;;;;;12.55;3.85;;;20.10;60.10;;;;;;5033232;28;20060;-71
2022/05/06 05:12:47;;;;;;;15.77;3.72;;;20.10;60.50;;;;;;5032814;28;20022;-71
2022/05/06 05:15:15;;;;;;;11.18;3.38;;;20.10;60.50;;;;;;5033161;28;20371;-71
2022/05/06 05:17:41;;;;;;;9.32;3.42;;;20.10;60.10;;;;;;5033219;28;20037;-73
2022/05/06 05:20:08;;;;;;;11.40;3.60;;;20.10;60.40;;;;;;5033012;28;20041;-72
2022/05/06 05:22:36;;;;;;;15.68;4.22;;;20.10;59.70;;;;;;5033480;28;20021;-70
2022/05/06 05:25:03;;;;;;;23.02;4.38;;;20.10;59.70;;;;;;5033089;28;20025;-71
2022/05/06 05:27:30;;;;;;;13.15;4.10;;;20.10;60.00;;;;;;5033170;28;20017;-71
2022/05/06 05:29:56;;;;;;;16.10;3.92;;;20.10;59.90;;;;;;5032933;28;20490;-70
2022/05/06 05:32:23;;;;;;;16.17;4.47;;;20.20;60.10;;;;;;5033081;28;20049;-71
2022/05/06 05:34:49;;;;;;;14.13;4.40;;;20.20;60.10;;;;;;5033093;28;20194;-71
2022/05/06 05:37:14;;;;;;;23.00;4.25;;;20.20;59.70;;;;;;5033540;28;20549;-71
2022/05/06 05:39:40;;;;;;;13.70;3.75;;;20.30;59.30;;;;;;5033541;28;20033;-71
2022/05/06 05:42:06;;;;;;;17.95;4.30;;;20.30;58.60;;;;;;5033418;28;20028;-71
2022/05/06 05:50:05;;;;;;;16.25;4.38;;;20.50;58.60;;;;;;5033870;28;20048;-71
2022/05/06 05:52:31;;;;;;;19.63;4.45;;;20.50;58.10;;;;;;5032684;28;20018;-69
2022/05/06 05:54:57;;;;;;;19.48;4.78;;;20.50;58.10;;;;;;5032860;28;20036;-72
2022/05/06 05:57:22;;;;;;;16.40;3.63;;;20.60;57.60;;;;;;5032733;28;20024;-78
2022/05/06 05:59:48;;;;;;;14.88;4.38;;;20.60;57.30;;;;;;5032574;28;20097;-74
2022/05/06 06:02:16;;;;;;;21.50;4.00;;;20.60;57.20;;;;;;5032554;28;20022;-75
2022/05/06 06:04:43;;;;;;;20.00;4.03;;;20.70;57.20;;;;;;5032786;28;20022;-75
2022/05/06 06:07:10;;;;;;;19.23;4.68;;;20.70;56.80;;;;;;5032951;28;20056;-73
2022/05/06 06:09:36;;;;;;;22.63;4.53;;;20.70;57.00;;;;;;5033084;28;20037;-74
2022/05/06 06:12:02;;;;;;;18.58;3.75;;;20.70;57.10;;;;;;5032802;28;20026;-75
2022/05/06 06:14:28;;;;;;;18.88;5.30;;;20.70;57.10;;;;;;5048141;28;20058;-77
2022/05/06 06:16:54;;;;;;;17.80;5.00;;;20.80;56.90;;;;;;5033038;28;20033;-77
2022/05/06 06:19:19;;;;;;;18.35;4.28;;;20.70;57.00;;;;;;5033004;28;20025;-76
2022/05/06 06:21:45;;;;;;;16.63;5.07;;;20.80;57.00;;;;;;5032777;28;20035;-76
2022/05/06 06:24:12;;;;;;;21.85;4.57;;;20.80;57.20;;;;;;5032720;28;20029;-77
2022/05/06 06:26:38;;;;;;;21.70;5.68;;;20.80;57.10;;;;;;5036320;28;20466;-76
2022/05/06 06:29:04;;;;;;;27.63;5.15;;;20.80;57.20;;;;;;5036918;28;20072;-73
2022/05/06 06:31:31;;;;;;;15.60;4.28;;;20.80;57.40;;;;;;5037486;28;20060;-76
2022/05/06 06:33:59;;;;;;;18.63;4.38;;;20.80;57.20;;;;;;5036973;28;20044;-74
2022/05/06 06:36:25;;;;;;;24.40;4.70;;;20.80;57.40;;;;;;5036013;28;20049;-75
2022/05/06 06:38:51;;;;;;;14.38;3.75;;;20.80;57.40;;;;;;5036004;28;20025;-75
2022/05/06 06:41:17;;;;;;;32.63;6.60;;;20.80;57.30;;;;;;5035907;28;20040;-73
2022/05/06 06:43:42;;;;;;;31.25;6.07;;;20.90;57.10;;;;;;5034208;28;20028;-73
2022/05/06 06:46:09;;;;;;;20.02;5.20;;;20.90;57.20;;;;;;5035223;28;20490;-74
2022/05/06 06:48:35;;;;;;;23.90;5.07;;;20.90;57.20;;;;;;5035506;28;20109;-74
2022/05/06 06:51:00;;;;;;;24.40;5.00;;;20.90;57.10;;;;;;5035354;28;20057;-73
2022/05/06 06:53:26;;;;;;;18.75;4.53;;;20.90;57.30;;;;;;5035424;28;20099;-74
2022/05/06 06:55:52;;;;;;;17.95;5.30;;;20.90;57.40;;;;;;5035439;28;20459;-77
2022/05/06 06:58:18;;;;;;;17.65;4.40;;;20.90;57.20;;;;;;5035347;28;20033;-74
2022/05/06 07:00:44;;;;;;;25.05;4.72;;;20.90;57.00;;;;;;5035578;28;20194;-74
2022/05/06 07:03:11;;;;;;;23.13;5.60;;;20.90;57.30;;;;;;5035628;28;20486;-74
2022/05/06 07:05:36;;;;;;;22.42;4.78;;;20.90;57.10;;;;;;5035263;28;20061;-75
2022/05/06 07:13:32;;;;;;;25.33;5.22;;;21.00;56.00;;;;;;5035548;28;20072;-72
2022/05/06 07:15:58;;;;;;;18.23;4.53;;;21.00;56.60;;;;;;5035101;28;20033;-74
2022/05/06 07:18:24;;;;;;;24.73;5.55;;;21.10;56.50;;;;;;5034953;28;20093;-73
2022/05/06 07:20:50;;;;;;;26.92;5.28;;;21.10;56.20;;;;;;5035397;28;20033;-74
2022/05/06 07:23:15;;;;;;;23.33;5.90;;;21.10;56.20;;;;;;5034090;28;20029;-73
2022/05/06 07:25:41;;;;;;;26.95;5.97;;;21.20;56.70;;;;;;5034546;28;20029;-73
2022/05/06 07:28:08;;;;;;;23.23;5.15;;;21.30;56.70;;;;;;5034576;28;20026;-71
2022/05/06 07:30:33;;;;;;;20.00;5.65;;;21.30;56.70;;;;;;5034871;28;20094;-73
2022/05/06 07:32:59;;;;;;;27.80;6.95;;;21.40;56.60;;;;;;5034480;28;20474;-71
2022/05/06 07:35:25;;;;;;;22.63;5.32;;;21.50;57.10;;;;;;5034244;28;20451;-74
2022/05/06 07:37:50;;;;;;;23.33;5.78;;;21.50;56.30;;;;;;5034342;28;20029;-71
2022/05/06 07:40:16;;;;;;;20.10;5.60;;;21.60;56.40;;;;;;5034332;28;20060;-71
2022/05/06 07:42:42;;;;;;;22.73;5.72;;;21.70;55.90;;;;;;5034529;28;20067;-72
2022/05/06 07:45:11;;;;;;;22.58;5.38;;;21.70;55.80;;;;;;5032983;28;20485;-72
2022/05/06 07:47:37;;;;;;;22.15;5.45;;;21.80;55.60;;;;;;5034422;28;20010;-73
2022/05/06 07:50:04;;;;;;;22.58;6.43;;;21.80;55.50;;;;;;5034160;28;20473;-71
2022/05/06 07:52:29;;;;;;;30.10;5.72;;;21.80;55.30;;;;;;5034128;28;20375;-71
2022/05/06 07:54:55;;;;;;;25.80;5.68;;;21.90;55.50;;;;;;5034107;28;20022;-72
2022/05/06 07:57:20;;;;;;;25.13;6.38;;;21.90;55.10;;;;;;5034525;28;20018;-71
2022/05/06 07:59:46;;;;;;;20.63;6.30;;;21.90;55.00;;;;;;5033925;28;20037;-71
2022/05/06 08:04:56;;;;;;;;;;;21.90;54.40;;;;;;5034274;28;20048;-71
2022/05/06 08:07:22;;;;;;;26.80;6.40;;;21.90;54.30;;;;;;5034067;28;19909;-72
2022/05/06 08:09:48;;;;;;;26.25;6.20;;;21.90;55.10;;;;;;5033735;28;20117;-70
2022/05/06 08:12:13;;;;;;;23.38;6.45;;;21.90;54.70;;;;;;5034211;28;20033;-71
2022/05/06 08:14:40;;;;;;;30.50;5.97;;;21.90;54.90;;;;;;5033649;28;20022;-72
2022/05/06 08:17:06;;;;;;;29.60;6.28;;;22.00;54.50;;;;;;5048896;28;20437;-71
2022/05/06 08:19:32;;;;;;;34.83;6.10;;;22.00;54.20;;;;;;5033650;28;20497;-71
2022/05/06 08:21:58;;;;;;;35.95;6.90;;;22.10;54.20;;;;;;5033782;28;20025;-73
2022/05/06 08:24:23;;;;;;;30.67;6.78;;;22.30;54.30;;;;;;5033986;28;20160;-71
2022/05/06 08:26:50;;;;;;;24.63;6.70;;;22.50;53.70;;;;;;5033623;28;20033;-71
2022/05/06 08:29:15;;;;;;;26.73;5.75;;;22.70;53.40;;;;;;5033353;28;20028;-71
2022/05/06 08:31:41;;;;;;;26.75;6.05;;;22.90;53.40;;;;;;5048406;28;20121;-71
2022/05/06 08:34:09;;;;;;;30.48;7.30;;;23.00;52.90;;;;;;5033454;28;20473;-71
2022/05/06 08:36:36;;;;;;;28.85;6.55;;;23.20;52.80;;;;;;5033128;28;20498;-71
2022/05/06 08:39:03;;;;;;;25.50;6.55;;;23.30;52.30;;;;;;5033210;28;20028;-71
2022/05/06 08:41:30;;;;;;;28.85;7.45;;;23.40;51.70;;;;;;5033598;28;20025;-72
2022/05/06 08:43:56;;;;;;;36.70;6.65;;;23.50;51.30;;;;;;5033371;28;20018;-71
2022/05/06 08:51:59;;;;;;;31.65;6.97;;;23.60;50.30;;;;;;5033560;28;20028;-71
2022/05/06 08:54:25;;;;;;;39.05;10.25;;;23.60;50.70;;;;;;5033041;28;20037;-71
2022/05/06 08:56:52;;;;;;;28.98;7.55;;;23.60;50.80;;;;;;5031576;28;20095;-70
2022/05/06 08:59:18;;;;;;;28.67;9.25;;;23.50;50.90;;;;;;5032982;28;20049;-70
2022/05/06 09:01:44;;;;;;;26.48;6.38;;;23.40;50.80;;;;;;5048494;28;20474;-72
2022/05/06 09:04:09;;;;;;;31.55;6.78;;;23.30;51.00;;;;;;5033102;28;20533;-74
2022/05/06 09:06:35;;;;;;;23.33;7.25;;;23.30;51.00;;;;;;5033059;28;20027;-72
2022/05/06 09:09:01;;;;;;;27.90;6.00;;;23.40;51.10;;;;;;5032938;28;20467;-71
2022/05/06 09:14:17;;;;;;;26.63;6.00;;;23.40;50.60;;;;;;5032923;28;20045;-72
2022/05/06 09:16:44;;;;;;;33.20;6.90;;;23.50;51.00;;;;;;5032809;28;20025;-70
2022/05/06 09:19:25;;;;;;;34.60;5.70;;;23.50;50.40;;;;;;5032541;28;20036;-72
2022/05/06 09:22:09;;;;;;;24.63;5.70;;;23.60;50.60;;;;;;5032447;28;20028;-70
2022/05/06 09:24:38;;;;;;;20.77;5.15;;;23.60;50.20;;;;;;5032651;28;20068;-71
2022/05/06 09:27:09;;;;;;;22.92;5.60;;;23.80;49.80;;;;;;5032591;28;20053;-71
2022/05/06 09:29:48;;;;;;;28.45;5.30;;;23.90;50.20;;;;;;5032444;28;20108;-73
2022/05/06 09:32:30;;;;;;;23.25;5.45;;;23.90;49.90;;;;;;5032159;28;20051;-72
2022/05/06 09:35:12;;;;;;;21.02;5.38;;;23.90;49.20;;;;;;5047352;28;20045;-71
2022/05/06 09:37:47;;;;;;;29.80;6.85;;;23.90;49.10;;;;;;5032816;28;20029;-69
2022/05/06 09:40:14;;;;;;;31.48;5.75;;;23.90;50.30;;;;;;5031107;28;20513;-70
2022/05/06 09:42:45;;;;;;;31.17;5.97;;;24.00;49.70;;;;;;5032462;28;20079;-71
2022/05/06 09:45:13;;;;;;;37.25;6.82;;;24.00;49.60;;;;;;5032273;28;20025;-71
2022/05/06 09:47:40;;;;;;;25.35;5.45;;;24.00;49.70;;;;;;5032512;28;20044;-71
2022/05/06 09:50:08;;;;;;;23.50;5.70;;;24.00;49.70;;;;;;5032182;28;20033;-71
2022/05/06 09:52:34;;;;;;;32.50;6.50;;;24.10;48.90;;;;;;5032339;28;20079;-71
2022/05/06 09:55:01;;;;;;;25.13;7.35;;;24.20;48.50;;;;;;5032249;28;20022;-75
2022/05/06 09:57:26;;;;;;;25.83;5.60;;;24.30;49.30;;;;;;5032272;28;20031;-72
2022/05/06 09:59:52;;;;;;;29.40;5.82;;;24.30;49.00;;;;;;5034282;28;20041;-73
2022/05/06 10:02:18;;;;;;;31.67;6.65;;;24.30;49.20;;;;;;5035794;28;20022;-75
2022/05/06 10:04:45;;;;;;;27.33;6.43;;;24.30;48.90;;;;;;5035785;28;20487;-71
2022/05/06 10:07:12;;;;;;;45.00;7.00;;;24.30;47.70;;;;;;5035669;28;20502;-71
2022/05/06 10:09:52;;;;;;;32.10;6.00;;;24.40;48.80;;;;;;5036004;28;20029;-73
2022/05/06 10:12:19;;;;;;;39.20;6.43;;;24.50;47.80;;;;;;5036032;28;20025;-70
2022/05/06 10:14:46;;;;;;;23.80;6.00;;;24.60;48.80;;;;;;5036007;28;20029;-72
2022/05/06 10:17:11;;;;;;;36.50;5.57;;;24.70;48.90;;;;;;5036027;28;20033;-71
2022/05/06 10:19:37;;;;;;;24.88;6.93;;;24.70;48.40;;;;;;5035591;28;20374;-71
2022/05/06 10:22:03;;;;;;;71.38;9.45;;;24.80;48.30;;;;;;5035561;28;20087;-71
2022/05/06 10:24:49;;;;;;;28.70;5.78;;;24.90;48.50;;;;;;5050910;28;20381;-70
2022/05/06 10:33:14;;;;;;;34.42;8.13;;;25.20;47.90;;;;;;5035465;28;20147;-73
2022/05/06 10:35:45;;;;;;;38.88;18.23;;;25.30;47.80;;;;;;5035234;28;20072;-71
2022/05/06 10:38:22;;;;;;;33.50;9.05;;;25.30;47.80;;;;;;5035747;28;20030;-73
2022/05/06 10:40:57;;;;;;;28.65;6.95;;;25.40;46.80;;;;;;5035842;28;20041;-71
2022/05/06 10:43:41;;;;;;;23.30;5.30;;;25.40;45.70;;;;;;5035859;28;20111;-73
2022/05/06 10:46:07;;;;;;;19.95;4.93;;;25.30;46.40;;;;;;5035258;28;20053;-72
2022/05/06 10:48:33;;;;;;;26.20;5.28;;;25.30;46.80;;;;;;5035643;28;20033;-72
2022/05/06 10:51:24;;;;;;;28.77;6.60;;;25.40;46.50;;;;;;5050393;28;20037;-70
2022/05/06 10:53:51;;;;;;;25.05;6.00;;;25.30;45.70;;;;;;5035216;28;20029;-71
2022/05/06 10:56:17;;;;;;;22.25;5.80;;;25.30;46.60;;;;;;5035337;28;20097;-73
2022/05/06 10:58:43;;;;;;;24.40;6.07;;;25.20;46.50;;;;;;5035178;28;20442;-74
2022/05/06 11:01:17;;;;;;;29.63;5.82;;;25.10;46.70;;;;;;5034821;28;20029;-71
2022/05/06 11:03:53;;;;;;;21.90;6.60;;;25.10;47.00;;;;;;5034813;28;20021;-73
2022/05/06 11:06:23;;;;;;;28.67;6.15;;;25.00;46.90;;;;;;5034968;28;20030;-72
2022/05/06 11:08:48;;;;;;;22.30;4.85;;;25.00;47.70;;;;;;5035142;28;20025;-71
2022/05/06 11:11:19;;;;;;;31.30;5.57;;;24.90;47.40;;;;;;5034250;28;20041;-71
2022/05/06 11:13:49;;;;;;;20.30;5.32;;;24.80;47.90;;;;;;5049615;28;20025;-71
2022/05/06 11:16:15;;;;;;;22.10;5.22;;;24.70;47.00;;;;;;5034549;28;20021;-71
2022/05/06 11:18:42;;;;;;;25.83;5.05;;;24.70;48.10;;;;;;5034661;28;20074;-72
2022/05/06 11:21:20;;;;;;;23.02;5.15;;;24.70;48.50;;;;;;5034599;28;20030;-73
2022/05/06 11:23:45;;;;;;;24.65;5.78;;;24.60;48.50;;;;;;5034523;28;20438;-74
2022/05/06 11:26:26;;;;;;;18.40;5.53;;;24.60;48.90;;;;;;5034623;28;20022;-71
2022/05/06 11:29:05;;;;;;;17.00;5.40;;;24.70;48.50;;;;;;5034425;28;20435;-71
2022/05/06 11:31:32;;;;;;;21.50;5.28;;;24.70;48.40;;;;;;5034453;28;20090;-72
2022/05/06 11:34:05;;;;;;;20.70;5.95;;;24.70;48.50;;;;;;5034382;28;20032;-70
2022/05/06 11:36:32;;;;;;;22.48;5.38;;;24.70;48.50;;;;;;5034167;28;20514;-71
2022/05/06 11:38:58;;;;;;;16.67;5.57;;;24.70;48.50;;;;;;5049510;28;20029;-72
2022/05/06 11:41:24;;;;;;;24.65;4.85;;;24.70;47.60;;;;;;5034307;28;20077;-72
2022/05/06 11:43:50;;;;;;;20.63;5.65;;;24.50;48.00;;;;;;5034225;28;20449;-70
2022/05/06 11:49:06;;;;;;;24.38;5.70;;;24.30;48.40;;;;;;5034451;28;20225;-73
2022/05/06 11:51:46;;;;;;;27.20;5.47;;;24.20;49.00;;;;;;5032336;28;20048;-71
2022/05/06 11:54:14;;;;;;;21.20;5.53;;;24.20;49.30;;;;;;5034079;28;20014;-72
2022/05/06 11:56:41;;;;;;;19.13;5.40;;;24.10;48.30;;;;;;5034157;28;20021;-73
2022/05/06 11:59:07;;;;;;;25.20;5.53;;;24.10;49.10;;;;;;5033759;28;20157;-72
2022/05/06 12:01:34;;;;;;;23.77;6.18;;;24.10;48.50;;;;;;5048961;28;20034;-74
2022/05/06 12:04:01;;;;;;;17.77;5.38;;;24.10;48.00;;;;;;5034068;28;20125;-72
2022/05/06 12:06:27;;;;;;;21.65;4.68;;;24.20;49.40;;;;;;5034096;28;20586;-71
2022/05/06 12:09:08;;;;;;;19.98;5.68;;;24.20;48.60;;;;;;5034214;28;20108;-72
2022/05/06 12:11:33;;;;;;;27.77;5.85;;;24.30;48.50;;;;;;5033797;28;20018;-72
2022/05/06 12:14:09;;;;;;;20.80;4.85;;;24.30;47.90;;;;;;5033580;28;20554;-73
2022/05/06 12:16:35;;;;;;;16.67;4.47;;;24.20;47.60;;;;;;5048662;28;20087;-73
2022/05/06 12:19:01;;;;;;;25.58;5.20;;;24.10;47.80;;;;;;5033587;28;20029;-72
2022/05/06 12:21:28;;;;;;;22.33;5.40;;;24.00;47.20;;;;;;5033950;28;20041;-74
2022/05/06 12:23:59;;;;;;;21.30;5.35;;;23.90;46.90;;;;;;5032437;28;20025;-71
2022/05/06 12:26:33;;;;;;;22.70;5.07;;;23.90;46.40;;;;;;5033691;28;20025;-73
2022/05/06 12:29:00;;;;;;;38.92;5.25;;;23.80;46.10;;;;;;5033625;28;20025;-72
2022/05/06 12:31:28;;;;;;;35.42;5.38;;;23.80;45.00;;;;;;5033629;28;20033;-73
2022/05/06 12:34:04;;;;;;;15.35;4.55;;;23.80;44.50;;;;;;5033311;28;20037;-73
2022/05/06 12:36:29;;;;;;;19.50;3.50;;;23.80;44.10;;;;;;5033145;28;20128;-71
2022/05/06 12:38:55;;;;;;;15.63;4.00;;;23.90;43.40;;;;;;5033291;28;20437;-71
2022/05/06 12:41:24;;;;;;;18.88;3.88;;;24.00;43.20;;;;;;5033188;28;20053;-72
2022/05/06 12:43:53;;;;;;;17.48;3.28;;;24.20;42.00;;;;;;5033113;28;20021;-71
2022/05/06 12:46:29;;;;;;;16.17;3.80;;;24.40;42.70;;;;;;5033466;28;20029;-71
2022/05/06 12:51:43;;;;;;;15.95;3.40;;;24.70;41.50;;;;;;5033666;28;20087;-71
2022/05/06 12:54:10;;;;;;;16.42;3.47;;;24.60;41.30;;;;;;5033269;28;20018;-72
2022/05/06 12:56:37;;;;;;;31.40;5.03;;;24.70;41.60;;;;;;5034109;28;20021;-71
2022/05/06 12:59:03;;;;;;;37.83;5.57;;;24.60;41.60;;;;;;5032568;28;20047;-72
2022/05/06 13:01:29;;;;;;;31.48;4.95;;;24.60;41.50;;;;;;5033641;28;20083;-71
2022/05/06 13:03:55;;;;;;;20.90;4.15;;;24.60;41.50;;;;;;5032991;28;20025;-72
2022/05/06 13:06:22;;;;;;;14.07;3.65;;;24.60;41.50;;;;;;5032136;28;20109;-72
2022/05/06 13:08:48;;;;;;;8.95;3.20;;;24.50;40.60;;;;;;5033460;28;20097;-71
2022/05/06 13:11:14;;;;;;;11.68;3.03;;;24.50;41.90;;;;;;5031720;28;20065;-73
2022/05/06 13:13:41;;;;;;;13.55;3.90;;;24.50;41.70;;;;;;5033392;28;20116;-72
2022/05/06 13:16:07;;;;;;;12.30;3.70;;;24.50;41.90;;;;;;5031970;28;20482;-72
2022/05/06 13:18:33;;;;;;;15.27;3.20;;;24.40;42.70;;;;;;5033650;28;20108;-72
2022/05/06 13:20:59;;;;;;;13.70;3.75;;;24.30;42.80;;;;;;5032228;28;20121;-74
2022/05/06 13:23:24;;;;;;;16.95;3.53;;;24.20;42.60;;;;;;5033659;28;20033;-75